createdAt,value
2018-12-18T00:01:55.846Z,7.40
2018-12-18T00:04:23.308Z,7.19
2018-12-18T00:06:51.072Z,6.90
2018-12-18T00:09:18.560Z,6.82
2018-12-18T00:11:46.015Z,6.72
2018-12-18T00:14:13.535Z,6.85
2018-12-18T00:16:40.969Z,6.94
2018-12-18T00:19:08.490Z,7.03
2018-12-18T00:21:35.985Z,7.16
2018-12-18T00:24:03.463Z,7.23
2018-12-18T00:26:30.935Z,7.23
2018-12-18T00:28:58.417Z,7.19
2018-12-18T00:31:25.883Z,7.23
2018-12-18T00:33:53.364Z,7.34
2018-12-18T00:36:20.846Z,7.59
2018-12-18T00:38:48.333Z,7.40
2018-12-18T00:41:15.813Z,7.22
2018-12-18T00:43:43.273Z,7.00
2018-12-18T00:46:10.746Z,6.93
2018-12-18T00:48:38.238Z,6.87
2018-12-18T00:51:05.736Z,6.87
2018-12-18T00:53:33.346Z,6.90
2018-12-18T00:56:02.045Z,6.98
2018-12-18T00:58:29.518Z,7.05
2018-12-18T01:00:56.977Z,7.04
2018-12-18T01:03:24.451Z,7.07
2018-12-18T01:05:52.045Z,7.05
2018-12-18T01:08:19.645Z,7.11
2018-12-18T01:10:47.105Z,7.19
2018-12-18T01:13:14.685Z,7.20
2018-12-18T01:15:42.163Z,7.12
2018-12-18T01:18:09.606Z,7.06
2018-12-18T01:20:37.098Z,6.97
2018-12-18T01:23:04.604Z,6.97
2018-12-18T01:25:32.055Z,6.94
2018-12-18T01:27:59.524Z,6.98
2018-12-18T01:30:26.991Z,7.02
2018-12-18T01:32:54.425Z,7.15
2018-12-18T01:35:21.889Z,7.11
2018-12-18T01:37:49.365Z,7.05
2018-12-18T01:40:16.851Z,7.07
2018-12-18T01:42:44.304Z,7.15
2018-12-18T01:45:11.789Z,7.23
2018-12-18T01:47:39.239Z,7.31
2018-12-18T01:50:06.891Z,7.18
2018-12-18T01:52:34.380Z,7.00
2018-12-18T01:55:03.887Z,6.78
2018-12-18T01:57:31.442Z,6.62
2018-12-18T01:59:58.916Z,6.50
2018-12-18T02:02:26.373Z,6.56
2018-12-18T02:04:53.844Z,6.60
2018-12-18T02:07:21.324Z,6.62
2018-12-18T02:09:48.786Z,6.67
2018-12-18T02:12:16.284Z,6.65
2018-12-18T02:14:43.719Z,6.63
2018-12-18T02:17:11.217Z,6.74
2018-12-18T02:19:38.667Z,6.76
2018-12-18T02:22:06.105Z,6.72
2018-12-18T02:24:33.582Z,6.69
2018-12-18T02:27:01.034Z,6.29
2018-12-18T02:29:28.516Z,6.00
2018-12-18T02:31:56.008Z,5.73
2018-12-18T02:34:23.467Z,5.65
2018-12-18T02:36:50.982Z,5.83
2018-12-18T02:39:18.460Z,5.98
2018-12-18T02:41:45.925Z,6.19
2018-12-18T02:44:13.381Z,6.23
2018-12-18T02:46:40.855Z,6.31
2018-12-18T02:49:08.317Z,6.26
2018-12-18T02:51:35.889Z,6.38
2018-12-18T02:54:03.396Z,6.49
2018-12-18T02:56:30.838Z,6.57
2018-12-18T02:58:58.410Z,6.81
2018-12-18T03:01:25.896Z,6.72
2018-12-18T03:03:53.367Z,6.51
2018-12-18T03:06:20.817Z,6.41
2018-12-18T03:08:48.325Z,6.35
2018-12-18T03:11:17.786Z,6.33
2018-12-18T03:13:45.270Z,6.43
2018-12-18T03:16:12.711Z,6.54
2018-12-18T03:18:40.796Z,6.63
2018-12-18T03:21:08.235Z,6.69
2018-12-18T03:23:35.686Z,6.76
2018-12-18T03:26:03.154Z,6.79
2018-12-18T03:28:30.631Z,6.81
2018-12-18T03:30:58.077Z,6.89
2018-12-18T03:33:25.566Z,6.99
2018-12-18T03:35:53.006Z,7.13
2018-12-18T03:38:20.485Z,6.99
2018-12-18T03:40:47.958Z,6.80
2018-12-18T03:43:15.420Z,6.70
2018-12-18T03:45:42.969Z,6.47
2018-12-18T03:48:10.547Z,6.45
2018-12-18T03:50:38.016Z,6.61
2018-12-18T03:53:05.474Z,6.68
2018-12-18T03:55:32.970Z,6.72
2018-12-18T03:58:00.443Z,6.81
2018-12-18T04:00:27.917Z,6.88
2018-12-18T04:02:55.380Z,6.96
2018-12-18T04:05:22.845Z,6.98
2018-12-18T04:07:50.348Z,7.03
2018-12-18T04:10:17.829Z,7.17
2018-12-18T04:12:45.295Z,7.22
2018-12-18T04:15:13.339Z,7.03
2018-12-18T04:17:40.804Z,6.76
2018-12-18T04:20:08.269Z,6.47
2018-12-18T04:22:35.756Z,6.45
2018-12-18T04:25:03.313Z,6.58
2018-12-18T04:27:30.759Z,6.65
2018-12-18T04:29:58.231Z,6.61
2018-12-18T04:32:25.694Z,6.58
2018-12-18T04:34:53.163Z,6.52
2018-12-18T04:37:21.080Z,6.47
2018-12-18T04:39:48.520Z,6.38
2018-12-18T04:42:16.166Z,6.38
2018-12-18T04:44:43.786Z,6.35
2018-12-18T04:47:11.221Z,6.43
2018-12-18T04:49:38.676Z,6.20
2018-12-18T04:52:06.150Z,5.82
2018-12-18T04:54:33.619Z,5.48
2018-12-18T04:57:01.074Z,5.33
2018-12-18T04:59:28.528Z,5.41
2018-12-18T05:01:55.982Z,5.64
2018-12-18T05:04:24.441Z,5.66
2018-12-18T05:06:51.875Z,5.67
2018-12-18T05:09:19.350Z,5.68
2018-12-18T05:11:46.772Z,5.76
2018-12-18T05:14:14.271Z,5.79
2018-12-18T05:16:41.720Z,5.86
2018-12-18T05:19:09.218Z,5.69
2018-12-18T05:21:36.682Z,5.54
2018-12-18T05:24:04.206Z,5.60
2018-12-18T05:26:31.691Z,5.15
2018-12-18T05:28:59.152Z,4.68
2018-12-18T05:31:26.614Z,4.26
2018-12-18T05:33:54.067Z,4.27
2018-12-18T05:36:21.545Z,4.66
2018-12-18T05:38:48.981Z,4.85
2018-12-18T05:41:16.460Z,5.08
2018-12-18T05:43:43.910Z,5.17
2018-12-18T05:46:11.400Z,5.33
2018-12-18T05:48:38.838Z,5.34
2018-12-18T05:51:06.330Z,5.30
2018-12-18T05:53:33.797Z,5.29
2018-12-18T05:56:01.247Z,5.21
2018-12-18T05:58:28.692Z,5.25
2018-12-18T06:00:56.177Z,5.13
2018-12-18T06:03:23.657Z,4.73
2018-12-18T06:05:51.105Z,4.42
2018-12-18T06:08:18.812Z,4.35
2018-12-18T06:10:46.281Z,4.35
2018-12-18T06:13:13.730Z,4.53
2018-12-18T06:15:41.187Z,4.69
2018-12-18T06:18:08.627Z,4.77
2018-12-18T06:20:36.226Z,4.79
2018-12-18T06:23:03.767Z,4.85
2018-12-18T06:25:31.335Z,4.99
2018-12-18T06:27:58.814Z,4.99
2018-12-18T06:30:26.261Z,4.95
2018-12-18T06:32:53.758Z,4.96
2018-12-18T06:35:21.205Z,5.15
2018-12-18T06:37:48.662Z,5.02
2018-12-18T06:40:16.139Z,4.79
2018-12-18T06:42:43.585Z,4.70
2018-12-18T06:45:11.059Z,4.70
2018-12-18T06:47:38.545Z,4.83
2018-12-18T06:50:06.202Z,4.94
2018-12-18T06:52:34.227Z,4.94
2018-12-18T06:55:01.710Z,5.02
2018-12-18T06:57:29.167Z,5.09
2018-12-18T06:59:56.650Z,5.19
2018-12-18T07:02:24.103Z,5.29
2018-12-18T07:04:51.701Z,5.38
2018-12-18T07:07:19.180Z,5.43
2018-12-18T07:09:46.680Z,5.49
2018-12-18T07:12:14.120Z,5.54
2018-12-18T07:14:41.606Z,5.34
2018-12-18T07:17:09.057Z,5.20
2018-12-18T07:19:36.560Z,4.99
2018-12-18T07:22:04.006Z,4.90
2018-12-18T07:24:31.491Z,4.97
2018-12-18T07:26:58.941Z,5.21
2018-12-18T07:29:26.396Z,5.29
2018-12-18T07:31:53.850Z,5.42
2018-12-18T07:34:22.116Z,5.49
2018-12-18T07:36:49.585Z,5.51
2018-12-18T07:39:17.064Z,5.35
2018-12-18T07:41:44.551Z,5.33
2018-12-18T07:44:11.996Z,5.28
2018-12-18T07:46:39.462Z,5.26
2018-12-18T07:49:06.960Z,5.23
2018-12-18T07:51:34.426Z,4.75
2018-12-18T07:54:01.916Z,4.38
2018-12-18T07:56:29.405Z,4.37
2018-12-18T07:58:56.872Z,4.49
2018-12-18T08:01:24.337Z,4.69
2018-12-18T08:03:51.776Z,4.77
2018-12-18T08:06:19.225Z,4.72
2018-12-18T08:08:46.708Z,4.82
2018-12-18T08:11:14.150Z,5.01
2018-12-18T08:13:41.620Z,5.10
2018-12-18T08:16:09.072Z,5.27
2018-12-18T08:18:36.568Z,5.45
2018-12-18T08:21:04.002Z,5.56
2018-12-18T08:23:31.501Z,5.89
2018-12-18T08:25:59.763Z,5.88
2018-12-18T08:28:27.211Z,5.77
2018-12-18T08:30:54.759Z,5.79
2018-12-18T08:33:22.296Z,5.69
2018-12-18T08:35:49.770Z,5.63
2018-12-18T08:38:17.250Z,5.78
2018-12-18T08:40:44.712Z,6.20
2018-12-18T08:43:12.192Z,6.43
2018-12-18T08:45:39.665Z,6.47
2018-12-18T08:48:07.127Z,6.55
2018-12-18T08:50:34.610Z,6.60
2018-12-18T08:53:02.072Z,6.63
2018-12-18T08:55:29.558Z,6.67
2018-12-18T08:57:57.106Z,6.68
2018-12-18T09:00:24.583Z,6.68
2018-12-18T09:02:52.165Z,6.55
2018-12-18T09:05:19.720Z,6.53
2018-12-18T09:07:47.194Z,6.57
2018-12-18T09:10:14.652Z,6.44
2018-12-18T09:12:42.138Z,6.37
2018-12-18T09:15:15.156Z,6.38
2018-12-18T09:17:45.654Z,6.56
2018-12-18T09:20:13.489Z,6.72
2018-12-18T09:22:41.062Z,6.79
2018-12-18T09:25:08.711Z,6.90
2018-12-18T09:27:36.181Z,7.01
2018-12-18T09:30:06.515Z,7.07
2018-12-18T09:32:33.950Z,7.16
2018-12-18T09:35:01.424Z,7.42
2018-12-18T09:37:28.869Z,7.48
2018-12-18T09:39:56.364Z,7.45
2018-12-18T09:42:29.456Z,7.35
2018-12-18T09:44:56.915Z,7.37
2018-12-18T09:47:24.392Z,7.50
2018-12-18T09:49:51.873Z,7.54
2018-12-18T09:52:19.340Z,7.66
2018-12-18T09:54:46.809Z,7.74
2018-12-18T10:00:20.333Z,7.88
2018-12-18T10:02:47.783Z,7.92
2018-12-18T10:05:15.251Z,8.05
2018-12-18T10:07:42.742Z,8.18
2018-12-18T10:10:10.263Z,8.30
2018-12-18T10:12:45.652Z,8.35
2018-12-18T10:15:13.466Z,8.25
2018-12-18T10:17:40.903Z,8.12
2018-12-18T10:20:08.500Z,8.07
2018-12-18T10:22:36.004Z,8.18
2018-12-18T10:25:03.629Z,8.17
2018-12-18T10:27:31.201Z,8.30
2018-12-18T10:29:58.659Z,8.52
2018-12-18T10:32:26.269Z,8.58
2018-12-18T10:34:53.793Z,8.70
2018-12-18T10:37:21.300Z,8.67
2018-12-18T10:39:48.750Z,8.74
2018-12-18T10:42:16.271Z,8.84
2018-12-18T10:44:43.759Z,9.03
2018-12-18T10:47:11.190Z,9.12
2018-12-18T10:49:38.680Z,9.03
2018-12-18T10:52:06.123Z,8.98
2018-12-18T10:54:33.580Z,8.93
2018-12-18T10:57:01.025Z,8.80
2018-12-18T10:59:28.498Z,8.72
2018-12-18T11:02:00.352Z,8.79
2018-12-18T11:04:27.823Z,8.81
2018-12-18T11:06:55.269Z,8.85
2018-12-18T11:09:22.717Z,8.82
2018-12-18T11:11:50.196Z,8.94
2018-12-18T11:14:17.653Z,9.03
2018-12-18T11:16:45.140Z,9.03
2018-12-18T11:19:12.595Z,9.10
2018-12-18T11:21:40.055Z,9.25
2018-12-18T11:24:07.535Z,9.27
2018-12-18T11:26:34.976Z,9.08
2018-12-18T11:29:02.441Z,9.06
2018-12-18T11:31:29.923Z,9.02
2018-12-18T11:33:57.399Z,8.93
2018-12-18T11:36:24.886Z,8.83
2018-12-18T11:38:52.339Z,8.86
2018-12-18T11:41:19.852Z,9.00
2018-12-18T11:43:47.325Z,9.04
2018-12-18T11:46:14.806Z,9.10
2018-12-18T11:48:42.280Z,9.27
2018-12-18T11:51:09.731Z,9.35
2018-12-18T11:53:37.213Z,9.33
2018-12-18T11:56:04.863Z,9.45
2018-12-18T11:58:33.180Z,9.61
2018-12-18T12:01:00.650Z,9.54
2018-12-18T12:03:28.104Z,9.50
2018-12-18T12:05:55.561Z,9.34
2018-12-18T12:08:23.045Z,9.29
2018-12-18T12:10:50.940Z,9.15
2018-12-18T12:13:18.413Z,9.15
2018-12-18T12:15:45.914Z,9.22
2018-12-18T12:18:13.334Z,9.23
2018-12-18T12:20:40.789Z,9.31
2018-12-18T12:23:08.254Z,9.38
2018-12-18T12:25:35.733Z,9.43
2018-12-18T12:28:05.135Z,9.53
2018-12-18T12:30:33.204Z,9.65
2018-12-18T12:33:00.708Z,9.91
2018-12-18T12:35:28.200Z,9.97
2018-12-18T12:37:55.745Z,9.80
2018-12-18T12:40:23.303Z,9.59
2018-12-18T12:42:50.754Z,9.58
2018-12-18T12:45:18.189Z,9.55
2018-12-18T12:47:48.023Z,9.52
2018-12-18T12:50:15.696Z,9.49
2018-12-18T12:52:43.174Z,9.54
2018-12-18T12:55:10.657Z,9.55
2018-12-18T12:57:38.114Z,9.49
2018-12-18T13:00:08.003Z,9.45
2018-12-18T13:02:35.450Z,9.47
2018-12-18T13:05:03.013Z,9.50
2018-12-18T13:07:30.493Z,9.60
2018-12-18T13:09:58.046Z,9.62
2018-12-18T13:12:25.529Z,9.36
2018-12-18T13:14:53.000Z,9.15
2018-12-18T13:17:20.465Z,9.08
2018-12-18T13:19:47.902Z,9.03
2018-12-18T13:22:15.381Z,9.01
2018-12-18T13:24:42.824Z,8.99
2018-12-18T13:27:10.288Z,8.94
2018-12-18T13:29:38.059Z,9.07
2018-12-18T13:32:06.717Z,9.15
2018-12-18T13:34:34.179Z,9.15
2018-12-18T13:37:01.651Z,9.15
2018-12-18T13:39:29.131Z,9.13
2018-12-18T13:41:56.628Z,9.22
2018-12-18T13:44:24.106Z,9.35
2018-12-18T13:46:51.560Z,9.26
2018-12-18T13:49:19.029Z,9.03
2018-12-18T13:51:46.494Z,8.83
2018-12-18T13:54:13.956Z,8.68
2018-12-18T13:56:41.526Z,8.56
2018-12-18T13:59:08.993Z,8.58
2018-12-18T14:01:36.541Z,8.62
2018-12-18T14:04:03.998Z,8.69
2018-12-18T14:06:31.482Z,8.74
2018-12-18T14:08:58.912Z,8.81
2018-12-18T14:11:26.349Z,8.84
2018-12-18T14:13:53.826Z,8.80
2018-12-18T14:16:21.286Z,8.85
2018-12-18T14:18:48.792Z,8.85
2018-12-18T14:21:16.244Z,8.87
2018-12-18T14:23:43.708Z,8.74
2018-12-18T14:26:11.190Z,8.50
2018-12-18T14:28:38.664Z,8.35
2018-12-18T14:31:06.111Z,8.19
2018-12-18T14:33:33.641Z,8.18
2018-12-18T14:36:01.107Z,8.12
2018-12-18T14:38:28.551Z,8.16
2018-12-18T14:40:56.013Z,8.20
2018-12-18T14:43:23.461Z,8.07
2018-12-18T14:45:50.967Z,8.06
2018-12-18T14:48:18.411Z,8.03
2018-12-18T14:50:45.929Z,8.11
2018-12-18T14:53:13.716Z,8.15
2018-12-18T14:55:41.172Z,8.23
2018-12-18T14:58:08.661Z,8.13
2018-12-18T15:00:36.177Z,7.94
2018-12-18T15:03:03.671Z,7.65
2018-12-18T15:05:31.213Z,7.40
2018-12-18T15:07:58.707Z,7.25
2018-12-18T15:10:26.308Z,7.07
2018-12-18T15:12:53.766Z,7.04
2018-12-18T15:15:21.235Z,7.05
2018-12-18T15:17:48.702Z,7.07
2018-12-18T15:20:16.217Z,7.00
2018-12-18T15:22:43.632Z,6.98
2018-12-18T15:25:11.108Z,6.93
2018-12-18T15:27:38.584Z,6.98
2018-12-18T15:30:07.259Z,7.16
2018-12-18T15:32:34.779Z,7.19
2018-12-18T15:35:02.253Z,7.12
2018-12-18T15:37:29.704Z,6.80
2018-12-18T15:39:57.186Z,6.63
2018-12-18T15:42:24.639Z,6.49
2018-12-18T15:44:52.111Z,6.42
2018-12-18T15:47:19.568Z,6.40
2018-12-18T15:49:47.058Z,6.39
2018-12-18T15:52:14.774Z,6.40
2018-12-18T15:54:42.243Z,6.47
2018-12-18T15:57:09.694Z,6.53
2018-12-18T15:59:37.159Z,6.54
2018-12-18T16:02:04.770Z,6.59
2018-12-18T16:04:32.267Z,6.63
2018-12-18T16:06:59.710Z,6.75
2018-12-18T16:09:27.203Z,6.65
2018-12-18T16:11:55.151Z,6.55
2018-12-18T16:14:22.756Z,6.37
2018-12-18T16:16:50.210Z,6.35
2018-12-18T16:19:17.978Z,6.32
2018-12-18T16:21:45.789Z,6.38
2018-12-18T16:24:14.050Z,6.38
2018-12-18T16:26:41.498Z,6.40
2018-12-18T16:29:08.949Z,6.38
2018-12-18T16:31:36.545Z,6.45
2018-12-18T16:34:04.071Z,6.50
2018-12-18T16:36:31.565Z,6.48
2018-12-18T16:38:59.004Z,6.50
2018-12-18T16:41:26.474Z,6.62
2018-12-18T16:43:53.932Z,6.62
2018-12-18T16:46:21.409Z,6.41
2018-12-18T16:48:48.848Z,6.18
2018-12-18T16:51:16.331Z,5.88
2018-12-18T16:53:43.778Z,5.60
2018-12-18T16:56:11.269Z,5.55
2018-12-18T16:58:38.747Z,5.75
2018-12-18T17:01:06.244Z,5.95
2018-12-18T17:03:33.813Z,6.12
2018-12-18T17:06:01.391Z,6.18
2018-12-18T17:08:28.844Z,6.28
2018-12-18T17:10:56.367Z,6.37
2018-12-18T17:13:23.804Z,6.35
2018-12-18T17:15:51.270Z,6.44
2018-12-18T17:18:18.734Z,6.52
2018-12-18T17:20:46.168Z,6.42
2018-12-18T17:23:13.652Z,6.26
2018-12-18T17:25:41.115Z,6.12
2018-12-18T17:28:08.609Z,6.04
2018-12-18T17:30:36.184Z,6.06
2018-12-18T17:33:03.667Z,6.07
2018-12-18T17:35:31.125Z,6.13
2018-12-18T17:37:58.623Z,6.18
2018-12-18T17:40:26.050Z,6.22
2018-12-18T17:42:53.485Z,6.29
2018-12-18T17:45:21.098Z,6.32
2018-12-18T17:47:48.552Z,6.37
2018-12-18T17:50:16.041Z,6.44
2018-12-18T17:52:43.503Z,6.54
2018-12-18T17:55:10.968Z,6.64
2018-12-18T17:57:38.455Z,6.47
2018-12-18T18:00:07.018Z,6.37
2018-12-18T18:02:34.514Z,6.14
2018-12-18T18:05:02.011Z,6.11
2018-12-18T18:07:29.468Z,6.22
2018-12-18T18:09:56.983Z,6.12
2018-12-18T18:12:29.976Z,6.22
2018-12-18T18:14:54.229Z,6.19
2018-12-18T18:17:21.745Z,6.16
2018-12-18T18:19:49.237Z,6.15
2018-12-18T18:22:16.753Z,6.24
2018-12-18T18:24:44.188Z,6.29
2018-12-18T18:27:11.685Z,6.37
2018-12-18T18:29:39.134Z,6.52
2018-12-18T18:32:06.660Z,6.51
2018-12-18T18:34:34.145Z,6.40
2018-12-18T18:37:01.651Z,6.20
2018-12-18T18:39:29.134Z,6.10
2018-12-18T18:41:56.605Z,6.16
2018-12-18T18:44:24.067Z,6.18
2018-12-18T18:46:51.593Z,6.21
2018-12-18T18:49:19.029Z,6.23
2018-12-18T18:51:46.549Z,6.26
2018-12-18T18:54:14.055Z,6.34
2018-12-18T18:56:41.497Z,6.32
2018-12-18T18:59:08.955Z,6.35
2018-12-18T19:01:36.444Z,6.37
2018-12-18T19:04:04.524Z,6.48
2018-12-18T19:06:32.012Z,6.62
2018-12-18T19:08:59.443Z,6.57
2018-12-18T19:11:26.922Z,6.53
2018-12-18T19:13:54.422Z,6.50
2018-12-18T19:16:21.890Z,6.51
2018-12-18T19:18:49.363Z,6.42
2018-12-18T19:21:16.858Z,6.35
2018-12-18T19:23:44.326Z,6.39
2018-12-18T19:26:11.828Z,6.51
2018-12-18T19:28:39.328Z,6.53
2018-12-18T19:31:06.793Z,6.51
2018-12-18T19:33:36.962Z,6.51
2018-12-18T19:36:04.092Z,6.56
2018-12-18T19:38:31.562Z,6.67
2018-12-18T19:40:59.070Z,6.79
2018-12-18T19:43:26.642Z,6.79
2018-12-18T19:45:54.201Z,6.66
2018-12-18T19:48:22.061Z,6.55
2018-12-18T19:50:49.536Z,6.40
2018-12-18T19:53:17.049Z,6.37
2018-12-18T19:55:44.521Z,6.34
2018-12-18T19:58:11.974Z,6.41
2018-12-18T20:00:39.488Z,6.36
2018-12-18T20:03:07.062Z,6.41
2018-12-18T20:05:34.539Z,6.44
2018-12-18T20:08:02.010Z,6.46
2018-12-18T20:10:29.492Z,6.55
2018-12-18T20:12:59.018Z,6.64
2018-12-18T20:15:26.522Z,6.74
2018-12-18T20:17:54.008Z,6.92
2018-12-18T20:20:21.484Z,6.84
2018-12-18T20:22:48.968Z,6.77
2018-12-18T20:25:16.483Z,6.65
2018-12-18T20:27:43.946Z,6.73
2018-12-18T20:30:12.103Z,6.69
2018-12-18T20:32:39.745Z,6.55
2018-12-18T20:35:07.188Z,6.52
2018-12-18T20:37:34.672Z,6.47
2018-12-18T20:40:02.276Z,6.61
2018-12-18T20:42:29.771Z,6.63
2018-12-18T20:44:57.236Z,6.65
2018-12-18T20:47:24.683Z,6.71
2018-12-18T20:49:52.183Z,6.80
2018-12-18T20:52:19.648Z,6.89
2018-12-18T20:54:47.147Z,6.81
2018-12-18T20:57:14.652Z,6.81
2018-12-18T20:59:42.112Z,6.84
2018-12-18T21:02:09.593Z,6.77
2018-12-18T21:04:38.010Z,6.66
2018-12-18T21:07:05.670Z,6.53
2018-12-18T21:09:33.107Z,6.60
2018-12-18T21:12:00.598Z,6.64
2018-12-18T21:14:28.066Z,6.63
2018-12-18T21:16:55.588Z,6.73
2018-12-18T21:19:23.060Z,6.80
2018-12-18T21:21:50.539Z,6.91
2018-12-18T21:24:18.019Z,7.00
2018-12-18T21:26:45.501Z,7.14
2018-12-18T21:29:12.975Z,7.30
2018-12-18T21:31:40.510Z,7.22
2018-12-18T21:34:07.999Z,7.12
2018-12-18T21:36:35.441Z,7.09
2018-12-18T21:39:02.958Z,6.93
2018-12-18T21:41:31.087Z,6.92
2018-12-18T21:43:58.558Z,6.83
2018-12-18T21:46:26.026Z,6.92
2018-12-18T21:48:53.482Z,6.98
2018-12-18T21:51:20.960Z,7.07
2018-12-18T21:53:48.418Z,7.18
2018-12-18T21:56:15.885Z,7.18
2018-12-18T21:58:43.361Z,7.19
2018-12-18T22:01:10.862Z,7.29
2018-12-18T22:03:38.364Z,7.39
2018-12-18T22:06:05.797Z,7.43
2018-12-18T22:08:36.801Z,7.31
2018-12-18T22:11:02.762Z,7.09
2018-12-18T22:13:30.248Z,6.93
2018-12-18T22:15:57.708Z,6.80
2018-12-18T22:18:25.250Z,6.88
2018-12-18T22:20:52.753Z,7.00
2018-12-18T22:23:20.227Z,7.17
2018-12-18T22:25:47.678Z,7.28
2018-12-18T22:28:15.152Z,7.38
2018-12-18T22:30:42.592Z,7.46
2018-12-18T22:33:10.086Z,7.48
2018-12-18T22:35:37.585Z,7.53
2018-12-18T22:38:05.026Z,7.72
2018-12-18T22:40:32.490Z,7.75
2018-12-18T22:43:00.467Z,7.47
2018-12-18T22:45:28.072Z,7.47
2018-12-18T22:47:55.515Z,7.40
2018-12-18T22:50:23.016Z,7.41
2018-12-18T22:52:50.465Z,7.28
2018-12-18T22:55:17.977Z,7.15
2018-12-18T22:57:45.415Z,7.20
2018-12-18T23:00:15.255Z,7.33
2018-12-18T23:02:42.731Z,7.36
2018-12-18T23:05:10.303Z,7.34
2018-12-18T23:07:37.740Z,7.37
2018-12-18T23:10:05.914Z,7.45
2018-12-18T23:12:33.392Z,7.57
2018-12-18T23:15:00.836Z,7.70
2018-12-18T23:17:28.319Z,7.54
2018-12-18T23:19:55.770Z,7.39
2018-12-18T23:22:23.270Z,7.29
2018-12-18T23:24:50.818Z,7.25
2018-12-18T23:27:19.712Z,7.35
2018-12-18T23:29:47.395Z,7.36
2018-12-18T23:32:14.891Z,7.38
2018-12-18T23:34:42.375Z,7.33
2018-12-18T23:37:10.169Z,7.34
2018-12-18T23:39:37.672Z,7.38
2018-12-18T23:42:05.114Z,7.42
2018-12-18T23:44:32.590Z,7.43
2018-12-18T23:47:00.021Z,7.56
2018-12-18T23:49:27.511Z,7.74
2018-12-18T23:51:54.982Z,7.75
2018-12-18T23:54:22.650Z,7.67
2018-12-18T23:56:50.123Z,7.58
2018-12-18T23:59:17.580Z,7.44
